aviador You're here:

LCLK Decoded Metar

LARNACA in CYPRUS
Report Time2017-09-25 16:30:00
UTC Time2017-09-25 16:47:18
Flight Rules vfr VFR
Wind280° at 07 kt
W.Decomp.*RWY 22: 3.9 kt HW 5.8 kt RCW
W.Rank280° ranks 20
Current wind is above 280° avg. (4.3)
Visibility9999 m
Phenomena:N/A
Clouds:Broken 035 Hf
Expected CloudBase > 3,200 ft AGL from Temp-Dew spread
Ceiling3,500 ft
Temp27°C (ISA +12)
Dew Point19°C (62% RH)
Heat Index28.2°C
QNH1013 hPa
Density Alt1,683 ft
Elevation7 ft
Report Wrong Elevation
Raw Report
LCLK 251630Z 28007KT 9999 BKN035 27/19 Q1013 NOSIG=

Extra information for LCLK:More info

Metar Taf Metar & Taf Last 4 Metars F.Rules Stats Wind Profile Meteogram Temp Stats Airport Information Weather charts Add Link Nearby VenuesMetar ALERT Operation Metar Decoded Social comments